createdAt,value
2022-11-09T00:01:01.924Z,100394.56
2022-11-09T00:03:28.336Z,100392.59
2022-11-09T00:05:56.606Z,100391.09
2022-11-09T00:08:23.034Z,100385.69
2022-11-09T00:10:49.436Z,100389.41
2022-11-09T00:13:15.943Z,100387.22
2022-11-09T00:15:42.509Z,100385.28
2022-11-09T00:18:08.904Z,100385.94
2022-11-09T00:20:35.290Z,100399.06
2022-11-09T00:23:01.683Z,100394.16
2022-11-09T00:25:28.135Z,100379.28
2022-11-09T00:27:54.579Z,100379.44
2022-11-09T00:30:21.036Z,100381.00
2022-11-09T00:32:48.035Z,100377.19
2022-11-09T00:35:14.570Z,100372.56
2022-11-09T00:37:41.023Z,100364.63
2022-11-09T00:40:08.678Z,100361.59
2022-11-09T00:42:35.062Z,100370.97
2022-11-09T00:45:01.467Z,100363.84
2022-11-09T00:47:27.874Z,100373.66
2022-11-09T00:49:54.342Z,100367.94
2022-11-09T00:52:20.804Z,100367.88
2022-11-09T00:54:47.287Z,100358.47
2022-11-09T00:57:14.055Z,100365.25
2022-11-09T00:59:40.571Z,100363.22
2022-11-09T01:02:06.984Z,100349.94
2022-11-09T01:04:33.385Z,100356.31
2022-11-09T01:06:59.898Z,100354.94
2022-11-09T01:09:26.409Z,100351.59
2022-11-09T01:11:52.876Z,100346.69
2022-11-09T01:14:19.332Z,100351.38
2022-11-09T01:16:45.751Z,100346.63
2022-11-09T01:19:12.272Z,100356.41
2022-11-09T01:21:38.734Z,100351.28
2022-11-09T01:24:05.693Z,100350.47
2022-11-09T01:26:32.471Z,100349.72
2022-11-09T01:28:58.878Z,100341.28
2022-11-09T01:31:25.635Z,100344.22
2022-11-09T01:33:52.117Z,100346.75
2022-11-09T01:36:21.084Z,100341.97
2022-11-09T01:38:48.127Z,100336.00
2022-11-09T01:41:18.447Z,100326.09
2022-11-09T01:43:46.794Z,100322.44
2022-11-09T01:46:30.140Z,100331.94
2022-11-09T01:49:01.768Z,100333.25
2022-11-09T01:51:33.860Z,100324.75
2022-11-09T01:54:06.023Z,100335.22
2022-11-09T01:56:33.076Z,100327.75
2022-11-09T01:59:03.893Z,100320.91
2022-11-09T02:01:31.828Z,100327.69
2022-11-09T02:04:23.889Z,100330.06
2022-11-09T02:06:50.662Z,100330.84
2022-11-09T02:09:29.169Z,100316.66
2022-11-09T02:11:56.309Z,100310.66
2022-11-09T02:14:25.308Z,100307.84
2022-11-09T02:16:51.889Z,100302.63
2022-11-09T02:19:18.424Z,100299.22
2022-11-09T02:21:45.123Z,100298.50
2022-11-09T02:24:12.568Z,100302.09
2022-11-09T02:26:45.675Z,100292.84
2022-11-09T02:29:17.349Z,100300.44
2022-11-09T02:31:46.242Z,100294.84
2022-11-09T02:34:16.729Z,100292.88
2022-11-09T02:36:45.994Z,100283.19
2022-11-09T02:39:16.419Z,100290.00
2022-11-09T02:41:46.641Z,100284.81
2022-11-09T02:44:15.637Z,100294.03
2022-11-09T02:46:42.153Z,100290.28
2022-11-09T02:49:08.649Z,100276.88
2022-11-09T02:51:35.071Z,100276.50
2022-11-09T02:54:01.463Z,100274.97
2022-11-09T02:56:27.954Z,100272.97
2022-11-09T02:58:54.632Z,100272.25
2022-11-09T03:01:21.114Z,100265.03
2022-11-09T03:03:47.982Z,100265.41
2022-11-09T03:06:14.376Z,100275.06
2022-11-09T03:08:40.785Z,100281.47
2022-11-09T03:11:07.432Z,100284.66
2022-11-09T03:13:34.675Z,100294.03
2022-11-09T03:16:06.133Z,100282.34
2022-11-09T03:18:32.632Z,100296.31
2022-11-09T03:21:06.428Z,100295.25
2022-11-09T03:23:33.313Z,100287.81
2022-11-09T03:25:59.718Z,100289.41
2022-11-09T03:28:26.375Z,100289.34
2022-11-09T03:30:53.120Z,100296.84
2022-11-09T03:33:20.303Z,100290.13
2022-11-09T03:35:46.911Z,100294.84
2022-11-09T03:38:13.501Z,100300.38
2022-11-09T03:40:40.289Z,100297.97
2022-11-09T03:43:06.728Z,100305.13
2022-11-09T03:45:33.332Z,100307.44
2022-11-09T03:48:02.621Z,100306.72
2022-11-09T03:50:31.883Z,100295.41
2022-11-09T03:52:59.006Z,100296.56
2022-11-09T03:55:25.864Z,100288.41
2022-11-09T03:57:52.387Z,100302.16
2022-11-09T04:00:21.544Z,100297.50
2022-11-09T04:02:48.131Z,100306.84
2022-11-09T04:05:15.265Z,100298.72
2022-11-09T04:07:48.489Z,100291.13
2022-11-09T04:10:15.178Z,100296.69
2022-11-09T04:12:41.586Z,100291.28
2022-11-09T04:15:08.465Z,100294.03
2022-11-09T04:17:34.928Z,100291.13
2022-11-09T04:20:01.994Z,100285.88
2022-11-09T04:22:28.464Z,100282.28
2022-11-09T04:24:54.863Z,100291.81
2022-11-09T04:27:21.487Z,100273.31
2022-11-09T04:29:47.900Z,100296.19
2022-11-09T04:32:14.316Z,100305.50
2022-11-09T04:34:41.332Z,100300.34
2022-11-09T04:37:08.983Z,100295.75
2022-11-09T04:39:35.371Z,100304.19
2022-11-09T04:42:02.480Z,100302.69
2022-11-09T04:44:31.552Z,100312.25
2022-11-09T04:46:57.966Z,100307.16
2022-11-09T04:49:24.365Z,100302.94
2022-11-09T04:51:50.782Z,100300.09
2022-11-09T04:54:17.173Z,100309.00
2022-11-09T04:56:43.538Z,100309.59
2022-11-09T04:59:10.036Z,100313.47
2022-11-09T05:01:36.432Z,100316.22
2022-11-09T05:04:02.934Z,100316.34
2022-11-09T05:06:32.321Z,100320.63
2022-11-09T05:09:00.767Z,100319.09
2022-11-09T05:11:27.480Z,100316.34
2022-11-09T05:13:53.918Z,100314.34
2022-11-09T05:16:20.896Z,100318.25
2022-11-09T05:18:47.569Z,100318.94
2022-11-09T05:21:14.004Z,100315.50
2022-11-09T05:27:21.040Z,100308.06
2022-11-09T05:29:47.429Z,100306.91
2022-11-09T05:32:14.170Z,100307.97
2022-11-09T05:34:40.586Z,100312.69
2022-11-09T05:37:06.975Z,100314.28
2022-11-09T05:39:33.358Z,100320.19
2022-11-09T05:41:59.797Z,100324.09
2022-11-09T05:44:26.331Z,100330.72
2022-11-09T05:46:52.720Z,100325.91
2022-11-09T05:49:19.163Z,100324.81
2022-11-09T05:51:45.618Z,100315.81
2022-11-09T05:54:12.114Z,100320.56
2022-11-09T05:56:38.567Z,100323.75
2022-11-09T05:59:04.956Z,100323.75
2022-11-09T06:01:31.377Z,100324.50
2022-11-09T06:03:57.811Z,100318.94
2022-11-09T06:06:24.250Z,100320.75
2022-11-09T06:08:50.732Z,100318.34
2022-11-09T06:11:23.651Z,100321.16
2022-11-09T06:13:51.726Z,100325.84
2022-11-09T06:16:18.152Z,100325.56
2022-11-09T06:18:44.544Z,100332.66
2022-11-09T06:21:10.970Z,100333.78
2022-11-09T06:23:37.448Z,100333.34
2022-11-09T06:26:09.817Z,100336.53
2022-11-09T06:28:38.184Z,100336.47
2022-11-09T06:31:07.006Z,100338.00
2022-11-09T06:33:35.120Z,100343.66
2022-11-09T06:36:02.561Z,100346.00
2022-11-09T06:38:29.574Z,100342.97
2022-11-09T06:40:57.817Z,100357.16
2022-11-09T06:43:25.187Z,100360.03
2022-11-09T06:45:52.650Z,100353.75
2022-11-09T06:48:19.763Z,100347.88
2022-11-09T06:50:46.634Z,100360.13
2022-11-09T06:53:15.521Z,100355.75
2022-11-09T06:55:48.862Z,100352.34
2022-11-09T06:58:16.972Z,100353.13
2022-11-09T07:00:44.555Z,100355.94
2022-11-09T07:03:15.917Z,100359.53
2022-11-09T07:05:42.683Z,100357.53
2022-11-09T07:08:09.851Z,100371.25
2022-11-09T07:10:36.734Z,100369.72
2022-11-09T07:13:03.789Z,100365.47
2022-11-09T07:15:30.306Z,100353.31
2022-11-09T07:18:00.754Z,100362.28
2022-11-09T07:20:28.270Z,100353.75
2022-11-09T07:22:55.401Z,100348.31
2022-11-09T07:25:22.492Z,100346.69
2022-11-09T07:27:49.164Z,100345.06
2022-11-09T07:30:15.619Z,100339.66
2022-11-09T07:35:29.761Z,100338.47
2022-11-09T07:38:01.164Z,100340.81
2022-11-09T07:40:27.575Z,100335.34
2022-11-09T07:42:58.268Z,100335.25
2022-11-09T07:45:24.713Z,100336.47
2022-11-09T07:47:55.925Z,100336.06
2022-11-09T07:50:22.367Z,100342.38
2022-11-09T07:52:48.766Z,100337.72
2022-11-09T07:55:15.324Z,100335.72
2022-11-09T07:57:44.220Z,100341.28
2022-11-09T08:00:11.904Z,100345.56
2022-11-09T08:02:38.389Z,100346.13
2022-11-09T08:05:05.452Z,100347.34
2022-11-09T08:07:33.532Z,100345.56
2022-11-09T08:10:00.140Z,100362.47
2022-11-09T08:12:26.576Z,100364.13
2022-11-09T08:14:53.038Z,100359.88
2022-11-09T08:17:19.434Z,100373.25
2022-11-09T08:19:45.851Z,100356.41
2022-11-09T08:22:12.228Z,100354.16
2022-11-09T08:24:38.943Z,100350.22
2022-11-09T08:27:05.455Z,100341.63
2022-11-09T08:29:31.893Z,100336.19
2022-11-09T08:31:58.385Z,100343.25
2022-11-09T08:34:24.789Z,100346.00
2022-11-09T08:36:51.172Z,100351.13
2022-11-09T08:39:17.575Z,100355.03
2022-11-09T08:41:44.039Z,100361.75
2022-11-09T08:44:10.455Z,100359.44
2022-11-09T08:46:41.086Z,100368.53
2022-11-09T08:49:07.948Z,100371.34
2022-11-09T08:51:34.330Z,100385.50
2022-11-09T08:54:00.768Z,100384.34
2022-11-09T08:56:27.231Z,100393.50
2022-11-09T08:58:53.684Z,100400.63
2022-11-09T09:01:20.193Z,100400.25
2022-11-09T09:03:46.889Z,100400.63
2022-11-09T09:06:13.299Z,100400.19
2022-11-09T09:08:39.730Z,100402.47
2022-11-09T09:11:06.359Z,100397.97
2022-11-09T09:13:33.363Z,100397.59
2022-11-09T09:16:13.034Z,100394.91
2022-11-09T09:18:39.572Z,100393.69
2022-11-09T09:21:10.596Z,100392.63
2022-11-09T09:23:37.353Z,100398.50
2022-11-09T09:26:04.222Z,100395.00
2022-11-09T09:28:30.783Z,100402.97
2022-11-09T09:30:59.749Z,100388.91
2022-11-09T09:33:27.121Z,100401.59
2022-11-09T09:35:57.462Z,100394.56
2022-11-09T09:38:24.816Z,100404.81
2022-11-09T09:40:57.477Z,100408.34
2022-11-09T09:43:29.973Z,100403.28
2022-11-09T09:45:59.198Z,100397.34
2022-11-09T09:48:31.601Z,100396.31
2022-11-09T09:51:09.872Z,100397.91
2022-11-09T09:53:47.026Z,100394.78
2022-11-09T09:56:19.518Z,100394.91
2022-11-09T09:58:51.791Z,100395.78
2022-11-09T10:01:20.836Z,100393.47
2022-11-09T10:03:48.593Z,100399.34
2022-11-09T10:06:37.671Z,100401.47
2022-11-09T10:09:37.368Z,100399.94
2022-11-09T10:12:18.935Z,100404.66
2022-11-09T10:15:00.404Z,100402.00
2022-11-09T10:17:39.551Z,100395.22
2022-11-09T10:20:24.387Z,100386.63
2022-11-09T10:22:56.738Z,100390.56
2022-11-09T10:25:43.952Z,100399.63
2022-11-09T10:28:17.467Z,100393.06
2022-11-09T10:30:44.490Z,100392.31
2022-11-09T10:33:10.950Z,100399.44
2022-11-09T10:35:50.409Z,100395.34
2022-11-09T10:38:23.536Z,100405.56
2022-11-09T10:40:55.911Z,100391.41
2022-11-09T10:43:23.731Z,100387.91
2022-11-09T10:46:08.147Z,100386.34
2022-11-09T10:48:40.340Z,100379.22
2022-11-09T10:51:32.657Z,100376.88
2022-11-09T10:54:24.597Z,100389.44
2022-11-09T10:57:14.123Z,100381.16
2022-11-09T10:59:43.465Z,100383.13
2022-11-09T11:02:28.908Z,100379.69
2022-11-09T11:05:07.157Z,100380.91
2022-11-09T11:07:35.448Z,100380.53
2022-11-09T11:10:17.634Z,100383.28
2022-11-09T11:13:17.947Z,100371.56
2022-11-09T11:15:45.244Z,100378.63
2022-11-09T11:18:22.253Z,100373.09
2022-11-09T11:20:48.933Z,100384.56
2022-11-09T11:23:21.552Z,100377.94
2022-11-09T11:25:54.313Z,100375.66
2022-11-09T11:28:33.653Z,100379.63
2022-11-09T11:31:00.499Z,100387.91
2022-11-09T11:33:26.931Z,100380.84
2022-11-09T11:36:18.798Z,100377.00
2022-11-09T11:39:13.030Z,100371.09
2022-11-09T11:41:54.450Z,100374.97
2022-11-09T11:44:36.362Z,100383.63
2022-11-09T11:47:03.068Z,100380.84
2022-11-09T11:49:40.863Z,100383.63
2022-11-09T11:52:14.527Z,100381.25
2022-11-09T11:54:47.198Z,100374.91
2022-11-09T11:57:28.924Z,100375.69
2022-11-09T11:59:55.300Z,100380.75
2022-11-09T12:02:49.753Z,100378.38
2022-11-09T12:05:22.009Z,100369.72
2022-11-09T12:07:58.552Z,100377.28
2022-11-09T12:10:55.198Z,100377.03
2022-11-09T12:13:27.643Z,100382.91
2022-11-09T12:16:14.049Z,100378.13
2022-11-09T12:19:00.676Z,100373.41
2022-11-09T12:21:44.088Z,100376.16
2022-11-09T12:24:22.971Z,100376.16
2022-11-09T12:27:04.724Z,100369.06
2022-11-09T12:29:44.567Z,100376.50
2022-11-09T12:32:36.177Z,100377.72
2022-11-09T12:35:08.714Z,100371.41
2022-11-09T12:37:41.093Z,100378.06
2022-11-09T12:40:24.011Z,100368.66
2022-11-09T12:43:04.434Z,100367.84
2022-11-09T12:45:35.731Z,100370.59
2022-11-09T12:48:11.633Z,100380.81
2022-11-09T12:50:38.958Z,100380.03
2022-11-09T12:53:06.306Z,100372.56
2022-11-09T12:55:52.150Z,100381.63
2022-11-09T12:58:31.483Z,100384.00
2022-11-09T13:01:00.743Z,100380.84
2022-11-09T13:03:31.020Z,100375.72
2022-11-09T13:06:25.187Z,100380.47
2022-11-09T13:09:07.498Z,100371.47
2022-11-09T13:11:40.945Z,100366.78
2022-11-09T13:14:22.532Z,100378.63
2022-11-09T13:16:50.546Z,100374.69
2022-11-09T13:19:35.067Z,100363.66
2022-11-09T13:22:02.329Z,100369.19
2022-11-09T13:24:31.939Z,100371.47
2022-11-09T13:27:03.343Z,100372.25
2022-11-09T13:29:50.987Z,100367.56
2022-11-09T13:32:25.681Z,100375.47
2022-11-09T13:34:55.003Z,100380.19
2022-11-09T13:37:36.867Z,100381.38
2022-11-09T13:40:30.951Z,100383.00
2022-11-09T13:43:00.321Z,100386.53
2022-11-09T13:45:32.032Z,100391.59
2022-11-09T13:47:58.711Z,100390.06
2022-11-09T13:50:31.850Z,100389.28
2022-11-09T13:52:59.865Z,100388.84
2022-11-09T13:55:32.409Z,100388.03
2022-11-09T13:58:03.857Z,100389.22
2022-11-09T14:00:30.596Z,100396.69
2022-11-09T14:03:02.204Z,100417.53
2022-11-09T14:05:33.248Z,100414.00
2022-11-09T14:08:03.861Z,100424.25
2022-11-09T14:10:45.464Z,100425.84
2022-11-09T14:13:33.547Z,100435.66
2022-11-09T14:16:38.535Z,100443.94
2022-11-09T14:19:11.007Z,100450.66
2022-11-09T14:21:44.188Z,100455.25
2022-11-09T14:24:21.049Z,100453.19
2022-11-09T14:27:10.207Z,100467.25
2022-11-09T14:29:54.148Z,100458.94
2022-11-09T14:32:25.409Z,100452.91
2022-11-09T14:34:51.996Z,100452.78
2022-11-09T14:37:19.215Z,100453.25
2022-11-09T14:39:50.866Z,100443.28
2022-11-09T14:42:21.213Z,100444.34
2022-11-09T14:44:48.648Z,100439.16
2022-11-09T14:47:18.456Z,100445.34
2022-11-09T14:49:46.253Z,100443.75
2022-11-09T14:52:18.137Z,100429.13
2022-11-09T14:54:46.366Z,100431.84
2022-11-09T14:57:16.115Z,100427.84
2022-11-09T14:59:44.890Z,100430.53
2022-11-09T15:02:15.249Z,100426.63
2022-11-09T15:04:53.205Z,100440.75
2022-11-09T15:07:22.814Z,100441.91
2022-11-09T15:09:53.882Z,100448.91
2022-11-09T15:12:21.361Z,100449.47
2022-11-09T15:14:50.233Z,100456.47
2022-11-09T15:17:34.727Z,100461.78
2022-11-09T15:20:22.638Z,100466.16
2022-11-09T15:22:54.002Z,100459.66
2022-11-09T15:25:35.250Z,100463.59
2022-11-09T15:28:13.622Z,100458.09
2022-11-09T15:30:46.376Z,100463.53
2022-11-09T15:33:24.119Z,100447.84
2022-11-09T15:36:06.630Z,100447.84
2022-11-09T15:38:44.746Z,100448.91
2022-11-09T15:41:17.583Z,100455.78
2022-11-09T15:43:44.232Z,100454.91
2022-11-09T15:46:19.531Z,100460.44
2022-11-09T15:48:46.582Z,100457.16
2022-11-09T15:51:14.018Z,100450.91
2022-11-09T15:53:40.911Z,100448.53
2022-11-09T15:56:10.601Z,100449.97
2022-11-09T15:58:37.077Z,100448.84
2022-11-09T16:01:03.593Z,100449.13
2022-11-09T16:03:30.015Z,100449.97
2022-11-09T16:05:56.496Z,100451.50
2022-11-09T16:08:23.323Z,100447.91
2022-11-09T16:10:50.182Z,100439.72
2022-11-09T16:13:16.578Z,100439.28
2022-11-09T16:15:43.061Z,100440.91
2022-11-09T16:18:10.547Z,100441.28
2022-11-09T16:20:37.018Z,100447.13
2022-11-09T16:23:03.479Z,100445.59
2022-11-09T16:25:29.883Z,100454.16
2022-11-09T16:27:56.351Z,100458.44
2022-11-09T16:30:22.961Z,100460.00
2022-11-09T16:32:49.479Z,100452.81
2022-11-09T16:35:26.709Z,100449.34
2022-11-09T16:37:55.093Z,100447.75
2022-11-09T16:40:22.300Z,100438.97
2022-11-09T16:42:49.783Z,100439.44
2022-11-09T16:45:17.310Z,100444.06
2022-11-09T16:47:49.147Z,100450.31
2022-11-09T16:50:15.889Z,100447.56
2022-11-09T16:52:42.447Z,100462.22
2022-11-09T16:55:09.663Z,100463.69
2022-11-09T16:57:36.993Z,100472.28
2022-11-09T17:00:06.292Z,100468.41
2022-11-09T17:02:33.187Z,100460.16
2022-11-09T17:04:59.681Z,100445.69
2022-11-09T17:07:27.083Z,100448.81
2022-11-09T17:09:53.629Z,100452.75
2022-11-09T17:12:20.183Z,100435.84
2022-11-09T17:14:46.605Z,100446.66
2022-11-09T17:17:15.941Z,100443.81
2022-11-09T17:19:46.847Z,100447.31
2022-11-09T17:22:14.595Z,100444.63
2022-11-09T17:24:41.347Z,100437.69
2022-11-09T17:27:09.644Z,100432.78
2022-11-09T17:29:39.910Z,100441.34
2022-11-09T17:32:09.233Z,100446.94
2022-11-09T17:34:36.139Z,100457.03
2022-11-09T17:37:04.584Z,100455.00
2022-11-09T17:39:31.533Z,100471.06
2022-11-09T17:41:58.009Z,100467.09
2022-11-09T17:44:24.484Z,100479.72
2022-11-09T17:46:50.996Z,100485.44
2022-11-09T17:49:17.455Z,100484.34
2022-11-09T17:51:43.901Z,100482.03
2022-11-09T17:54:10.350Z,100482.78
2022-11-09T17:56:36.794Z,100483.63
2022-11-09T17:59:05.349Z,100490.78
2022-11-09T18:01:36.372Z,100495.84
2022-11-09T18:04:06.959Z,100481.06
2022-11-09T18:06:33.942Z,100489.31
2022-11-09T18:09:34.406Z,100495.75
2022-11-09T18:11:47.931Z,100498.06
2022-11-09T18:14:15.830Z,100496.31
2022-11-09T18:16:42.605Z,100496.38
2022-11-09T18:19:09.289Z,100501.88
2022-11-09T18:21:35.755Z,100503.78
2022-11-09T18:24:02.568Z,100511.22
2022-11-09T18:26:31.318Z,100499.13
2022-11-09T18:28:58.252Z,100507.25
2022-11-09T18:31:24.743Z,100507.31
2022-11-09T18:33:51.316Z,100507.63
2022-11-09T18:36:21.050Z,100505.66
2022-11-09T18:38:47.880Z,100508.66
2022-11-09T18:41:17.905Z,100505.91
2022-11-09T18:43:45.027Z,100510.19
2022-11-09T18:46:14.415Z,100511.56
2022-11-09T18:48:41.379Z,100516.25
2022-11-09T18:51:08.951Z,100511.41
2022-11-09T18:53:40.879Z,100523.13
2022-11-09T18:56:17.236Z,100524.78
2022-11-09T18:58:43.713Z,100534.41
2022-11-09T19:01:10.358Z,100542.50
2022-11-09T19:03:37.305Z,100534.19
2022-11-09T19:06:08.582Z,100537.75
2022-11-09T19:08:54.052Z,100533.47
2022-11-09T19:11:20.648Z,100538.88
2022-11-09T19:13:47.237Z,100537.00
2022-11-09T19:16:15.294Z,100539.25
2022-11-09T19:18:42.437Z,100548.19
2022-11-09T19:21:27.286Z,100546.66
2022-11-09T19:23:54.046Z,100553.88
2022-11-09T19:26:23.997Z,100553.38
2022-11-09T19:28:50.485Z,100557.50
2022-11-09T19:31:19.131Z,100555.41
2022-11-09T19:33:45.710Z,100563.19
2022-11-09T19:38:58.914Z,100562.00
2022-11-09T19:41:25.785Z,100568.03
2022-11-09T19:43:54.546Z,100575.44
2022-11-09T19:46:21.959Z,100570.09
2022-11-09T19:48:48.751Z,100573.66
2022-11-09T19:51:16.937Z,100576.19
2022-11-09T19:53:52.270Z,100576.69
2022-11-09T19:56:19.519Z,100585.75
2022-11-09T19:58:50.805Z,100584.88
2022-11-09T20:01:17.906Z,100578.19
2022-11-09T20:03:44.480Z,100579.50
2022-11-09T20:06:10.939Z,100579.50
2022-11-09T20:08:37.696Z,100591.34
2022-11-09T20:11:09.999Z,100585.97
2022-11-09T20:13:40.638Z,100593.13
2022-11-09T20:16:09.039Z,100601.34
2022-11-09T20:18:37.418Z,100596.84
2022-11-09T20:21:04.674Z,100596.13
2022-11-09T20:23:31.133Z,100604.81
2022-11-09T20:26:09.318Z,100602.41
2022-11-09T20:28:36.386Z,100600.91
2022-11-09T20:31:14.073Z,100600.19
2022-11-09T20:33:40.498Z,100604.34
2022-11-09T20:36:07.173Z,100606.63
2022-11-09T20:38:34.180Z,100604.50
2022-11-09T20:41:03.327Z,100610.09
2022-11-09T20:43:30.225Z,100604.72
2022-11-09T20:46:02.353Z,100608.94
2022-11-09T20:51:18.410Z,100616.13
2022-11-09T20:53:46.207Z,100616.28
2022-11-09T20:56:14.017Z,100617.16
2022-11-09T20:58:40.781Z,100611.25
2022-11-09T21:01:13.945Z,100624.25
2022-11-09T21:03:41.011Z,100624.41
2022-11-09T21:06:08.567Z,100626.00
2022-11-09T21:08:35.395Z,100627.25
2022-11-09T21:11:03.600Z,100629.81
2022-11-09T21:13:30.358Z,100633.22
2022-11-09T21:16:05.024Z,100634.13
2022-11-09T21:18:31.597Z,100632.38
2022-11-09T21:21:06.272Z,100638.81
2022-11-09T21:23:51.448Z,100640.69
2022-11-09T21:26:36.206Z,100637.78
2022-11-09T21:29:22.185Z,100635.75
2022-11-09T21:31:48.609Z,100644.47
2022-11-09T21:34:15.105Z,100639.72
2022-11-09T21:36:43.396Z,100642.63
2022-11-09T21:39:10.890Z,100640.50
2022-11-09T21:41:38.120Z,100636.44
2022-11-09T21:44:06.473Z,100645.00
2022-11-09T21:46:32.897Z,100643.06
2022-11-09T21:48:59.659Z,100651.03
2022-11-09T21:51:26.124Z,100648.91
2022-11-09T21:53:52.635Z,100651.09
2022-11-09T21:56:19.284Z,100660.22
2022-11-09T21:58:47.431Z,100656.16
2022-11-09T22:01:15.820Z,100658.03
2022-11-09T22:03:42.647Z,100663.50
2022-11-09T22:06:09.420Z,100675.19
2022-11-09T22:08:35.897Z,100677.66
2022-11-09T22:11:08.206Z,100677.38
2022-11-09T22:13:53.935Z,100679.50
2022-11-09T22:16:21.697Z,100682.69
2022-11-09T22:19:06.566Z,100691.78
2022-11-09T22:21:33.142Z,100687.22
2022-11-09T22:24:00.554Z,100687.53
2022-11-09T22:26:29.074Z,100694.19
2022-11-09T22:28:56.818Z,100687.28
2022-11-09T22:31:23.521Z,100695.13
2022-11-09T22:33:50.063Z,100702.41
2022-11-09T22:36:18.309Z,100707.44
2022-11-09T22:38:46.031Z,100705.75
2022-11-09T22:41:14.538Z,100715.28
2022-11-09T22:43:43.195Z,100710.50
2022-11-09T22:46:14.453Z,100706.34
2022-11-09T22:48:42.534Z,100719.59
2022-11-09T22:51:10.910Z,100720.03
2022-11-09T22:53:37.406Z,100717.81
2022-11-09T22:56:04.960Z,100728.63
2022-11-09T22:58:31.400Z,100726.69
2022-11-09T23:01:24.430Z,100729.88
2022-11-09T23:03:51.725Z,100734.34
2022-11-09T23:06:21.122Z,100738.19
2022-11-09T23:08:47.901Z,100744.19
2022-11-09T23:11:18.076Z,100734.47
2022-11-09T23:13:47.817Z,100739.94
2022-11-09T23:16:14.267Z,100746.75
2022-11-09T23:18:56.216Z,100753.16
2022-11-09T23:21:31.400Z,100758.19
2022-11-09T23:24:03.654Z,100765.41
2022-11-09T23:26:31.214Z,100767.31
2022-11-09T23:28:57.828Z,100773.22
2022-11-09T23:31:24.966Z,100780.41
2022-11-09T23:33:54.307Z,100780.06
2022-11-09T23:36:25.423Z,100777.03
2022-11-09T23:38:52.184Z,100778.28
2022-11-09T23:41:19.103Z,100773.88
2022-11-09T23:43:49.174Z,100775.00
2022-11-09T23:46:17.214Z,100788.94
2022-11-09T23:48:44.127Z,100794.38
2022-11-09T23:51:11.074Z,100791.75
2022-11-09T23:53:38.106Z,100800.75
2022-11-09T23:56:07.530Z,100805.31
2022-11-09T23:58:34.193Z,100804.19
